Time;durP1;ratioP1;P1;durP2;ratioP2;P2;SDS_P1;SDS_P2;PMS_P1;PMS_P2;Temp;Humidity;BMP_temperature;BMP_pressure;BME280_temperature;BME280_humidity;BME280_pressure;Samples;Min_cycle;Max_cycle;Signal;HPM_P1;HPM_P2
2021/06/18 00:02:44;;;;;;;8.98;6.20;;;21.20;99.90;;;;;;5084826;28;20517;-69
2021/06/18 00:05:48;;;;;;;10.70;5.88;;;21.20;99.90;;;;;;5074054;28;20054;-69
2021/06/18 00:08:51;;;;;;;10.68;6.05;;;21.40;99.90;;;;;;5078019;28;20039;-69
2021/06/18 00:11:55;;;;;;;13.73;6.03;;;21.40;99.90;;;;;;5076198;28;20040;-69
2021/06/18 00:15:08;;;;;;;9.40;5.80;;;21.40;99.90;;;;;;5083921;28;20399;-68
2021/06/18 00:18:12;;;;;;;8.25;5.68;;;21.40;99.90;;;;;;5089824;28;20071;-68
2021/06/18 00:21:15;;;;;;;12.20;5.75;;;21.40;99.90;;;;;;5082945;28;20043;-69
2021/06/18 00:24:20;;;;;;;8.55;5.22;;;21.30;99.90;;;;;;5083736;28;20035;-69
2021/06/18 00:27:25;;;;;;;10.95;6.18;;;21.20;99.90;;;;;;5076886;28;20043;-69
2021/06/18 00:30:29;;;;;;;9.38;6.03;;;21.20;99.90;;;;;;5089300;28;20502;-70
2021/06/18 00:33:33;;;;;;;11.10;6.03;;;21.20;99.90;;;;;;5086025;28;20046;-69
2021/06/18 00:36:37;;;;;;;10.20;5.20;;;21.10;99.90;;;;;;5088294;28;20066;-69
2021/06/18 00:39:41;;;;;;;7.80;5.57;;;21.10;99.90;;;;;;5082556;28;20051;-70
2021/06/18 00:42:46;;;;;;;7.60;5.97;;;21.10;99.90;;;;;;5071262;28;20059;-69
2021/06/18 00:45:51;;;;;;;16.60;6.25;;;21.00;99.90;;;;;;5084610;28;20043;-69
2021/06/18 00:48:55;;;;;;;10.90;6.22;;;20.90;99.90;;;;;;5075654;28;20055;-69
2021/06/18 00:52:01;;;;;;;10.38;5.80;;;20.80;99.90;;;;;;5088543;28;20046;-69
2021/06/18 00:55:08;;;;;;;7.50;5.88;;;20.80;99.90;;;;;;5088126;28;20043;-68
2021/06/18 00:58:12;;;;;;;10.38;6.07;;;20.70;99.90;;;;;;5069391;28;20056;-69
2021/06/18 01:01:17;;;;;;;9.90;5.72;;;20.80;99.90;;;;;;5069359;28;20051;-69
2021/06/18 01:04:25;;;;;;;9.70;5.90;;;20.70;99.90;;;;;;5073052;28;20040;-69
2021/06/18 01:07:33;;;;;;;7.57;4.97;;;20.70;99.90;;;;;;5073914;28;20046;-69
2021/06/18 01:10:52;;;;;;;11.55;5.65;;;20.70;99.90;;;;;;5069177;28;20039;-69
2021/06/18 01:14:01;;;;;;;9.60;6.35;;;20.70;99.90;;;;;;5076132;28;20027;-68
2021/06/18 01:17:24;;;;;;;11.52;5.90;;;20.50;99.90;;;;;;5082353;28;20047;-68
2021/06/18 01:21:05;;;;;;;9.38;6.07;;;20.40;99.90;;;;;;5073679;28;20063;-69
2021/06/18 01:24:31;;;;;;;9.38;6.18;;;20.40;99.90;;;;;;5072766;28;20414;-68
2021/06/18 01:27:42;;;;;;;9.65;6.93;;;20.30;99.90;;;;;;5073521;28;20035;-69
2021/06/18 01:30:47;;;;;;;9.90;6.63;;;20.20;99.90;;;;;;5072369;28;20048;-69
2021/06/18 01:33:56;;;;;;;11.48;6.45;;;20.20;99.90;;;;;;5073462;28;20055;-69
2021/06/18 01:37:13;;;;;;;11.68;6.82;;;20.10;99.90;;;;;;5092706;28;20391;-69
2021/06/18 01:40:19;;;;;;;9.77;7.28;;;20.10;99.90;;;;;;5074874;28;20048;-69
2021/06/18 01:43:28;;;;;;;13.00;7.13;;;20.00;99.90;;;;;;5077163;28;20047;-69
2021/06/18 01:46:35;;;;;;;11.90;7.30;;;20.00;99.90;;;;;;5092866;28;20636;-69
2021/06/18 01:49:41;;;;;;;16.15;7.35;;;20.00;99.90;;;;;;5076210;28;20039;-68
2021/06/18 01:52:50;;;;;;;11.48;7.70;;;20.00;99.90;;;;;;5074666;28;20043;-68
2021/06/18 01:55:56;;;;;;;18.77;7.82;;;20.00;99.90;;;;;;5093687;28;20035;-70
2021/06/18 01:59:02;;;;;;;15.68;7.00;;;19.90;99.90;;;;;;5090646;28;20051;-69
2021/06/18 02:02:09;;;;;;;12.90;6.97;;;19.90;99.90;;;;;;5079036;28;20059;-69
2021/06/18 02:05:15;;;;;;;10.40;6.88;;;19.80;99.90;;;;;;5071573;28;20039;-69
2021/06/18 02:08:20;;;;;;;12.15;6.38;;;19.80;99.90;;;;;;5085126;28;20035;-68
2021/06/18 02:11:27;;;;;;;9.35;6.43;;;19.70;99.90;;;;;;5081745;28;20044;-69
2021/06/18 02:14:33;;;;;;;6.35;5.05;;;19.60;99.90;;;;;;5072700;28;20395;-69
2021/06/18 02:17:40;;;;;;;6.82;4.97;;;19.60;99.90;;;;;;5072739;28;20499;-69
2021/06/18 02:20:46;;;;;;;11.93;5.25;;;19.60;99.90;;;;;;5088282;28;20505;-69
2021/06/18 02:23:53;;;;;;;7.80;5.60;;;19.60;99.90;;;;;;5073397;28;20494;-69
2021/06/18 02:26:59;;;;;;;11.70;6.13;;;19.50;99.90;;;;;;5090858;28;20047;-69
2021/06/18 02:30:05;;;;;;;12.60;8.02;;;19.50;99.90;;;;;;5086962;28;20130;-68
2021/06/18 02:33:12;;;;;;;16.00;9.23;;;19.30;99.90;;;;;;5086450;28;20055;-68
2021/06/18 02:36:16;;;;;;;14.10;8.48;;;19.20;99.90;;;;;;5070377;28;20095;-68
2021/06/18 02:39:21;;;;;;;10.40;8.00;;;19.10;99.90;;;;;;5070509;28;20048;-69
2021/06/18 02:42:26;;;;;;;11.48;8.95;;;19.10;99.90;;;;;;5082024;28;20501;-69
2021/06/18 02:45:30;;;;;;;14.70;8.55;;;19.10;99.90;;;;;;5090686;28;20039;-69
2021/06/18 02:48:42;;;;;;;13.55;8.10;;;19.00;99.90;;;;;;5087742;28;21035;-69
2021/06/18 02:51:51;;;;;;;11.70;8.98;;;19.00;99.90;;;;;;5089459;28;20035;-69
2021/06/18 02:55:04;;;;;;;18.52;11.00;;;19.00;99.90;;;;;;5086615;28;20043;-69
2021/06/18 02:58:24;;;;;;;12.48;9.60;;;19.00;99.90;;;;;;5088098;28;20502;-69
2021/06/18 03:01:35;;;;;;;13.15;8.90;;;18.90;99.90;;;;;;5071195;28;20605;-70
2021/06/18 03:04:43;;;;;;;10.18;8.02;;;18.90;99.90;;;;;;5075107;28;20051;-69
2021/06/18 03:07:57;;;;;;;11.57;8.15;;;18.90;99.90;;;;;;5090183;28;20035;-69
2021/06/18 03:11:02;;;;;;;12.98;8.07;;;19.00;99.90;;;;;;5070457;28;20044;-69
2021/06/18 03:14:10;;;;;;;12.30;8.55;;;18.90;99.90;;;;;;5079802;28;20043;-69
2021/06/18 03:17:18;;;;;;;19.98;9.00;;;18.90;99.90;;;;;;5087219;28;20039;-69
2021/06/18 03:20:23;;;;;;;12.90;8.93;;;18.80;99.90;;;;;;5069847;28;20597;-69
2021/06/18 03:23:30;;;;;;;16.30;8.65;;;18.80;99.90;;;;;;5071890;28;20047;-69
2021/06/18 03:26:35;;;;;;;16.10;9.15;;;18.80;99.90;;;;;;5075859;28;20047;-69
2021/06/18 03:29:39;;;;;;;16.67;9.35;;;18.70;99.90;;;;;;5070429;28;20388;-69
2021/06/18 03:32:46;;;;;;;16.20;9.90;;;18.70;99.90;;;;;;5085287;28;20035;-69
2021/06/18 03:35:51;;;;;;;20.58;10.10;;;18.70;99.90;;;;;;5081979;28;20047;-68
2021/06/18 03:38:56;;;;;;;18.27;9.18;;;18.60;99.90;;;;;;5089949;28;20047;-69
2021/06/18 03:42:01;;;;;;;13.35;8.88;;;18.50;99.90;;;;;;5087407;28;20533;-68
2021/06/18 03:45:08;;;;;;;14.48;8.85;;;18.40;99.90;;;;;;5075990;28;20047;-68
2021/06/18 03:48:16;;;;;;;13.57;8.40;;;18.30;99.90;;;;;;5089170;28;20051;-68
2021/06/18 03:51:21;;;;;;;14.38;8.80;;;18.30;99.90;;;;;;5080459;28;20403;-69
2021/06/18 03:54:25;;;;;;;14.90;9.25;;;18.20;99.90;;;;;;5083610;28;20043;-68
2021/06/18 03:57:32;;;;;;;17.02;9.50;;;18.20;99.90;;;;;;5089422;28;20047;-69
2021/06/18 04:00:39;;;;;;;12.43;8.90;;;18.20;99.90;;;;;;5090277;28;20066;-69
2021/06/18 04:03:48;;;;;;;14.60;8.98;;;18.30;99.90;;;;;;5076811;28;20048;-68
2021/06/18 04:06:52;;;;;;;15.73;9.13;;;18.30;99.90;;;;;;5069538;28;20146;-68
2021/06/18 04:09:58;;;;;;;13.27;8.75;;;18.20;99.90;;;;;;5086927;28;20040;-69
2021/06/18 04:13:03;;;;;;;17.20;9.15;;;18.20;99.90;;;;;;5075292;28;20378;-69
2021/06/18 04:16:08;;;;;;;15.57;8.75;;;18.30;99.90;;;;;;5074335;28;20067;-68
2021/06/18 04:19:13;;;;;;;18.80;9.05;;;18.40;99.90;;;;;;5069311;28;20039;-68
2021/06/18 04:22:34;;;;;;;15.18;8.82;;;18.50;99.90;;;;;;5074589;28;20046;-68
2021/06/18 04:25:38;;;;;;;12.75;8.15;;;18.50;99.90;;;;;;5079575;28;20042;-69
2021/06/18 04:28:42;;;;;;;11.55;7.45;;;18.80;99.90;;;;;;5077156;28;20063;-69
2021/06/18 04:31:46;;;;;;;11.95;7.18;;;19.70;99.90;;;;;;5069092;28;20044;-69
2021/06/18 04:34:50;;;;;;;12.45;6.93;;;20.70;99.90;;;;;;5084302;28;20059;-69
2021/06/18 04:37:54;;;;;;;9.60;6.30;;;21.50;99.90;;;;;;5073120;28;20055;-69
2021/06/18 04:40:58;;;;;;;10.15;6.05;;;23.30;99.90;;;;;;5088455;28;20043;-69
2021/06/18 04:44:05;;;;;;;10.40;5.53;;;24.80;99.90;;;;;;5071300;28;20047;-69
2021/06/18 04:47:09;;;;;;;13.27;4.88;;;26.30;99.90;;;;;;5069778;28;20549;-69
2021/06/18 04:50:14;;;;;;;5.60;4.30;;;27.30;99.90;;;;;;5088107;28;20395;-69
2021/06/18 04:53:18;;;;;;;9.80;4.93;;;28.00;98.20;;;;;;5086774;28;20046;-69
2021/06/18 04:56:24;;;;;;;11.35;5.10;;;27.60;97.40;;;;;;5088235;28;20395;-69
2021/06/18 04:59:28;;;;;;;6.30;4.30;;;27.00;97.90;;;;;;5089595;28;20051;-69
2021/06/18 05:02:33;;;;;;;7.20;4.65;;;28.00;97.40;;;;;;5072131;28;20048;-69
2021/06/18 05:05:37;;;;;;;8.93;5.03;;;28.40;96.40;;;;;;5073719;28;20051;-68
2021/06/18 05:08:41;;;;;;;9.10;4.88;;;27.40;96.90;;;;;;5076074;28;20035;-69
2021/06/18 05:11:45;;;;;;;7.03;4.50;;;28.40;96.50;;;;;;5087667;28;20031;-69
2021/06/18 05:14:49;;;;;;;6.90;3.63;;;29.80;96.10;;;;;;5084075;28;20043;-70
2021/06/18 05:17:54;;;;;;;11.82;4.25;;;30.90;94.90;;;;;;5086364;28;20052;-69
2021/06/18 05:21:00;;;;;;;8.88;4.38;;;30.70;93.50;;;;;;5087570;28;20055;-68
2021/06/18 05:24:06;;;;;;;7.18;4.90;;;28.60;94.40;;;;;;5076477;28;20043;-68
2021/06/18 05:27:11;;;;;;;8.57;5.20;;;26.20;97.90;;;;;;5084845;28;20044;-69
2021/06/18 05:30:17;;;;;;;13.57;4.85;;;26.40;98.80;;;;;;5070174;28;20063;-69
2021/06/18 05:33:21;;;;;;;8.82;4.80;;;27.80;97.70;;;;;;5086251;28;20043;-68
2021/06/18 05:36:25;;;;;;;8.60;5.30;;;27.70;97.10;;;;;;5087091;28;20043;-67
2021/06/18 05:39:29;;;;;;;10.93;5.93;;;24.60;99.90;;;;;;5088164;28;20051;-67
2021/06/18 05:42:34;;;;;;;8.48;5.95;;;23.20;99.90;;;;;;5074386;28;20059;-67
2021/06/18 05:45:39;;;;;;;9.65;5.68;;;23.10;99.90;;;;;;5079921;28;20047;-67
2021/06/18 05:48:43;;;;;;;8.93;6.68;;;23.80;99.90;;;;;;5086931;28;20043;-67
2021/06/18 05:51:48;;;;;;;10.27;6.63;;;24.00;99.90;;;;;;5082865;28;20387;-67
2021/06/18 05:54:52;;;;;;;16.15;7.28;;;21.70;99.90;;;;;;5087684;28;20039;-67
2021/06/18 05:57:57;;;;;;;9.88;7.45;;;20.70;99.90;;;;;;5087245;28;20043;-68
2021/06/18 06:01:04;;;;;;;13.35;7.95;;;20.70;99.90;;;;;;5089032;28;20047;-68
2021/06/18 06:04:09;;;;;;;11.90;7.25;;;21.10;99.90;;;;;;5087873;28;20051;-68
2021/06/18 06:07:13;;;;;;;9.30;6.68;;;21.70;99.90;;;;;;5090598;28;20043;-68
2021/06/18 06:10:17;;;;;;;9.20;6.07;;;22.20;99.90;;;;;;5083523;28;20047;-69
2021/06/18 06:13:21;;;;;;;14.95;6.80;;;22.50;99.90;;;;;;5088417;28;20047;-68
2021/06/18 06:16:25;;;;;;;15.30;7.30;;;22.90;99.90;;;;;;5088950;28;20498;-69
2021/06/18 06:19:30;;;;;;;7.82;6.15;;;23.00;99.90;;;;;;5090249;28;20043;-69
2021/06/18 06:22:34;;;;;;;11.43;6.68;;;23.00;99.90;;;;;;5081124;28;20039;-69
2021/06/18 06:25:39;;;;;;;7.80;6.03;;;23.00;99.90;;;;;;5090884;28;20050;-68
2021/06/18 06:28:43;;;;;;;14.68;6.57;;;22.70;99.90;;;;;;5089142;28;20132;-68
2021/06/18 06:31:47;;;;;;;12.65;6.78;;;22.60;99.90;;;;;;5090737;28;20525;-68
2021/06/18 06:34:51;;;;;;;12.68;7.25;;;22.80;99.90;;;;;;5089130;28;20055;-67
2021/06/18 06:37:55;;;;;;;9.20;6.53;;;22.20;99.90;;;;;;5086514;28;20062;-68
2021/06/18 06:40:59;;;;;;;8.63;6.13;;;22.00;99.90;;;;;;5088049;28;20497;-68
2021/06/18 06:44:05;;;;;;;16.98;6.80;;;22.30;99.90;;;;;;5086249;28;20047;-68
2021/06/18 06:47:09;;;;;;;10.55;7.30;;;22.20;99.90;;;;;;5090592;28;20097;-68
2021/06/18 06:50:14;;;;;;;10.95;7.03;;;21.70;99.90;;;;;;5087141;28;20379;-68
2021/06/18 06:53:18;;;;;;;9.00;6.35;;;21.80;99.90;;;;;;5079005;28;20044;-69
2021/06/18 06:56:22;;;;;;;8.05;6.25;;;22.30;99.90;;;;;;5078458;28;20050;-70
2021/06/18 06:59:26;;;;;;;8.75;6.15;;;22.60;99.90;;;;;;5089344;28;20039;-69
2021/06/18 07:02:30;;;;;;;9.20;6.10;;;23.30;99.90;;;;;;5083630;28;20039;-69
2021/06/18 07:05:34;;;;;;;9.18;5.82;;;24.00;99.90;;;;;;5083196;28;20091;-69
2021/06/18 07:08:40;;;;;;;9.93;5.63;;;24.50;99.90;;;;;;5080686;28;20048;-70
2021/06/18 07:11:44;;;;;;;11.40;6.03;;;25.10;99.90;;;;;;5082707;28;20047;-69
2021/06/18 07:14:49;;;;;;;19.05;6.70;;;25.60;99.90;;;;;;5089108;28;20059;-70
2021/06/18 07:17:56;;;;;;;10.50;6.82;;;26.00;99.90;;;;;;5085966;28;20391;-69
2021/06/18 07:21:00;;;;;;;12.27;5.47;;;26.50;99.90;;;;;;5081757;28;20071;-69
2021/06/18 07:24:05;;;;;;;7.00;5.13;;;26.70;99.90;;;;;;5076382;28;20039;-68
2021/06/18 07:27:09;;;;;;;9.75;5.40;;;26.90;99.90;;;;;;5085554;28;20391;-68
2021/06/18 07:30:14;;;;;;;7.65;4.90;;;27.10;99.90;;;;;;5087470;28;20039;-68
2021/06/18 07:33:18;;;;;;;10.15;5.35;;;27.00;99.50;;;;;;5078640;28;20545;-68
2021/06/18 07:36:22;;;;;;;7.03;4.75;;;26.20;99.90;;;;;;5083574;28;20039;-68
2021/06/18 07:39:28;;;;;;;6.25;4.72;;;26.70;99.90;;;;;;5081180;28;20043;-69
2021/06/18 07:42:32;;;;;;;9.25;4.80;;;27.30;99.60;;;;;;5081319;28;20055;-69
2021/06/18 07:45:36;;;;;;;10.60;5.22;;;27.50;99.10;;;;;;5089616;28;20387;-68
2021/06/18 07:48:41;;;;;;;9.05;4.85;;;27.30;99.90;;;;;;5088768;28;20399;-69
2021/06/18 07:51:45;;;;;;;6.30;4.90;;;27.60;99.50;;;;;;5082601;28;20086;-69
2021/06/18 07:54:53;;;;;;;5.32;4.75;;;27.90;98.80;;;;;;5086105;28;20070;-68
2021/06/18 07:57:58;;;;;;;8.50;5.05;;;27.20;99.10;;;;;;5085481;28;20040;-68
2021/06/18 08:01:02;;;;;;;8.13;5.03;;;27.90;98.60;;;;;;5084341;28;20529;-68
2021/06/18 08:04:06;;;;;;;7.80;4.85;;;28.60;98.10;;;;;;5084418;28;20043;-68
2021/06/18 08:07:10;;;;;;;10.40;5.03;;;28.60;97.80;;;;;;5084612;28;20050;-68
2021/06/18 08:10:16;;;;;;;7.78;4.78;;;28.00;98.40;;;;;;5084336;28;20038;-67
2021/06/18 08:13:20;;;;;;;10.60;4.40;;;27.80;99.20;;;;;;5081305;28;20043;-68
2021/06/18 08:16:25;;;;;;;6.93;4.63;;;28.70;98.30;;;;;;5089212;28;20059;-68
2021/06/18 08:19:28;;;;;;;8.45;4.40;;;28.50;98.60;;;;;;5085661;28;20059;-69
2021/06/18 08:22:33;;;;;;;4.38;3.67;;;29.10;98.00;;;;;;5080412;28;20056;-69
2021/06/18 08:25:37;;;;;;;9.98;3.75;;;32.00;95.60;;;;;;5087009;28;20043;-68
2021/06/18 08:28:41;;;;;;;6.78;3.90;;;33.60;93.30;;;;;;5076735;28;20363;-69
2021/06/18 08:31:45;;;;;;;7.10;3.28;;;34.60;92.10;;;;;;5085671;28;20032;-69
2021/06/18 08:34:49;;;;;;;6.80;3.70;;;35.60;90.50;;;;;;5089357;28;20039;-68
2021/06/18 08:37:53;;;;;;;6.47;3.30;;;36.70;87.60;;;;;;5080276;28;20047;-69
2021/06/18 08:40:58;;;;;;;7.15;3.40;;;37.60;85.70;;;;;;5082512;28;20054;-69
2021/06/18 08:44:03;;;;;;;8.27;3.38;;;37.30;83.10;;;;;;5087118;28;20051;-69
2021/06/18 08:47:07;;;;;;;6.40;2.75;;;35.30;83.30;;;;;;5085396;28;20047;-69
2021/06/18 08:50:14;;;;;;;3.85;2.70;;;36.50;84.60;;;;;;5084806;28;20055;-68
2021/06/18 08:53:18;;;;;;;4.22;2.70;;;36.80;80.70;;;;;;5083733;28;20047;-69
2021/06/18 08:56:22;;;;;;;9.55;3.10;;;35.40;81.90;;;;;;5077410;28;20043;-68
2021/06/18 08:59:27;;;;;;;4.80;3.25;;;34.40;84.30;;;;;;5076348;28;20960;-69
2021/06/18 09:02:32;;;;;;;6.90;3.40;;;33.50;86.20;;;;;;5082975;28;20059;-68
2021/06/18 09:05:37;;;;;;;6.75;3.50;;;32.50;88.10;;;;;;5086205;28;20043;-68
2021/06/18 09:08:42;;;;;;;6.18;3.83;;;32.10;88.90;;;;;;5084476;28;20494;-70
2021/06/18 09:11:52;;;;;;;5.07;3.30;;;33.20;88.80;;;;;;5074024;28;20050;-69
2021/06/18 09:14:56;;;;;;;6.43;3.45;;;34.20;87.40;;;;;;5075047;28;20576;-70
2021/06/18 09:18:41;;;;;;;6.90;3.13;;;35.00;83.80;;;;;;5085898;28;20039;-69
2021/06/18 09:22:06;;;;;;;9.75;3.67;;;35.10;82.30;;;;;;5080592;28;20043;-69
2021/06/18 09:25:16;;;;;;;7.78;3.40;;;33.70;84.70;;;;;;5081306;28;20615;-68
2021/06/18 09:28:20;;;;;;;5.03;3.30;;;33.80;83.30;;;;;;5086673;28;20035;-68
2021/06/18 09:31:27;;;;;;;4.63;3.15;;;34.20;83.50;;;;;;5082811;28;20047;-68
2021/06/18 09:35:22;;;;;;;7.70;3.00;;;32.80;86.10;;;;;;5080028;28;20043;-68
2021/06/18 09:38:19;;;;;;;5.78;3.58;;;32.00;88.40;;;;;;5086738;28;20390;-67
2021/06/18 09:41:34;;;;;;;5.07;3.60;;;30.30;89.30;;;;;;5089340;28;20058;-67
2021/06/18 09:44:38;;;;;;;5.75;3.78;;;30.50;90.90;;;;;;5089883;28;20047;-68
2021/06/18 09:47:42;;;;;;;9.93;4.53;;;29.90;92.40;;;;;;5089949;28;20051;-68
2021/06/18 09:50:49;;;;;;;6.68;3.75;;;29.60;92.60;;;;;;5088082;28;20052;-67
2021/06/18 09:53:54;;;;;;;5.43;3.85;;;29.90;92.30;;;;;;5081271;28;20055;-68
2021/06/18 09:57:16;;;;;;;7.03;3.65;;;32.70;90.80;;;;;;5081740;28;20055;-68
2021/06/18 10:00:22;;;;;;;7.47;3.88;;;34.00;88.10;;;;;;5083068;28;20375;-67
2021/06/18 10:03:27;;;;;;;5.43;3.33;;;32.90;88.00;;;;;;5088324;28;20699;-67
2021/06/18 10:06:36;;;;;;;4.97;3.30;;;32.60;89.20;;;;;;5074738;28;20048;-68
2021/06/18 10:09:40;;;;;;;7.43;3.60;;;32.40;88.00;;;;;;5070975;28;20036;-67
2021/06/18 10:12:45;;;;;;;4.72;3.20;;;31.50;90.40;;;;;;5072320;28;20039;-67
2021/06/18 10:15:49;;;;;;;6.05;2.92;;;33.50;86.50;;;;;;5091976;28;20059;-68
2021/06/18 10:18:59;;;;;;;9.30;3.30;;;35.20;83.50;;;;;;5083647;28;20052;-67
2021/06/18 10:22:07;;;;;;;5.07;2.92;;;33.30;83.80;;;;;;5076384;28;20046;-67
2021/06/18 10:25:14;;;;;;;12.38;3.00;;;33.60;85.60;;;;;;5091899;28;20047;-67
2021/06/18 10:28:27;;;;;;;5.57;3.45;;;33.80;82.00;;;;;;5092190;28;20051;-66
2021/06/18 10:31:37;;;;;;;7.28;3.40;;;32.40;84.40;;;;;;5087021;28;20067;-67
2021/06/18 10:34:41;;;;;;;5.80;3.10;;;32.60;84.00;;;;;;5092278;28;20047;-66
2021/06/18 10:37:48;;;;;;;6.97;2.80;;;33.00;83.30;;;;;;5075312;28;20039;-67
2021/06/18 10:40:55;;;;;;;13.93;4.55;;;32.80;82.80;;;;;;5073855;28;20119;-67
2021/06/18 10:43:59;;;;;;;6.68;3.20;;;32.90;83.60;;;;;;5072500;28;20388;-67
2021/06/18 10:47:30;;;;;;;5.75;3.42;;;31.90;85.90;;;;;;5070813;28;20047;-68
2021/06/18 10:50:47;;;;;;;5.00;2.80;;;31.20;87.30;;;;;;5078129;28;20059;-68
2021/06/18 10:54:01;;;;;;;8.20;3.80;;;31.70;88.00;;;;;;5087428;28;20055;-68
2021/06/18 10:57:13;;;;;;;6.85;3.50;;;31.50;87.50;;;;;;5072896;28;20047;-68
2021/06/18 11:00:23;;;;;;;17.40;3.35;;;32.30;85.90;;;;;;5089208;28;20047;-68
2021/06/18 11:03:56;;;;;;;4.40;3.40;;;32.10;88.10;;;;;;5083118;28;20419;-68
2021/06/18 11:07:00;;;;;;;6.43;3.10;;;31.70;88.90;;;;;;5090439;28;20059;-69
2021/06/18 11:10:04;;;;;;;5.65;3.67;;;32.60;87.20;;;;;;5088509;28;20039;-68
2021/06/18 11:13:10;;;;;;;8.30;3.38;;;33.50;86.00;;;;;;5082386;28;20051;-69
2021/06/18 11:16:32;;;;;;;8.85;3.50;;;33.50;85.40;;;;;;5089107;28;20502;-69
2021/06/18 11:19:48;;;;;;;6.07;3.10;;;33.90;86.40;;;;;;5076117;28;20043;-69
2021/06/18 11:23:12;;;;;;;10.23;3.42;;;34.80;84.10;;;;;;5075424;28;20048;-68
2021/06/18 11:26:21;;;;;;;10.55;3.83;;;33.70;84.70;;;;;;5085153;28;20051;-67
2021/06/18 11:29:27;;;;;;;11.32;3.75;;;31.90;88.00;;;;;;5091471;28;20043;-69
2021/06/18 11:32:42;;;;;;;6.10;3.90;;;32.10;89.30;;;;;;5070973;28;20063;-68
2021/06/18 11:35:47;;;;;;;6.13;3.42;;;33.00;87.70;;;;;;5074521;28;20055;-68
2021/06/18 11:39:04;;;;;;;10.00;3.40;;;32.20;86.10;;;;;;5071367;28;20048;-70
2021/06/18 11:42:08;;;;;;;9.85;3.80;;;31.70;85.80;;;;;;5069618;28;20048;-68
2021/06/18 11:45:13;;;;;;;6.47;3.65;;;32.70;86.90;;;;;;5069695;28;20043;-67
2021/06/18 11:48:17;;;;;;;6.28;4.40;;;31.20;88.30;;;;;;5080115;28;20067;-68
2021/06/18 11:51:27;;;;;;;7.45;4.18;;;30.20;90.50;;;;;;5089950;28;20043;-68
2021/06/18 11:54:33;;;;;;;5.03;3.78;;;30.90;90.70;;;;;;5073261;28;20103;-70
2021/06/18 11:57:38;;;;;;;9.35;4.13;;;32.30;89.20;;;;;;5077969;28;20059;-68
2021/06/18 12:00:42;;;;;;;8.15;4.20;;;33.40;86.30;;;;;;5089890;28;20047;-70
2021/06/18 12:03:52;;;;;;;10.38;3.80;;;33.70;85.20;;;;;;5084872;28;20043;-69
2021/06/18 12:06:57;;;;;;;10.10;3.92;;;34.50;85.20;;;;;;5077639;28;20043;-69
2021/06/18 12:10:03;;;;;;;7.72;3.70;;;35.90;83.60;;;;;;5069748;28;20048;-68
2021/06/18 12:13:07;;;;;;;14.90;4.00;;;36.90;81.50;;;;;;5069891;28;20044;-69
2021/06/18 12:16:12;;;;;;;8.60;3.63;;;36.10;81.00;;;;;;5086360;28;20051;-70
2021/06/18 12:19:48;;;;;;;4.90;3.45;;;36.30;81.70;;;;;;5089210;28;20059;-70
2021/06/18 12:22:52;;;;;;;8.32;3.47;;;36.90;79.70;;;;;;5083929;28;20058;-70
2021/06/18 12:25:57;;;;;;;6.20;3.55;;;36.30;79.70;;;;;;5076316;28;20043;-71
2021/06/18 12:29:04;;;;;;;6.88;3.45;;;36.10;81.10;;;;;;5078752;28;20047;-71
2021/06/18 12:32:09;;;;;;;6.35;3.47;;;36.10;79.70;;;;;;5089209;28;20513;-69
2021/06/18 12:35:18;;;;;;;10.43;4.20;;;35.40;82.80;;;;;;5079233;28;20047;-71
2021/06/18 12:38:22;;;;;;;7.32;4.13;;;33.90;82.00;;;;;;5080592;28;20047;-69
2021/06/18 12:41:28;;;;;;;7.03;4.07;;;32.40;84.50;;;;;;5086076;28;20043;-69
2021/06/18 12:44:33;;;;;;;6.25;4.05;;;33.10;85.40;;;;;;5083902;28;20039;-70
2021/06/18 12:47:39;;;;;;;7.55;4.00;;;33.90;84.40;;;;;;5084228;28;20502;-70
2021/06/18 12:50:44;;;;;;;9.98;4.40;;;33.00;84.80;;;;;;5082839;28;20039;-70
2021/06/18 12:53:49;;;;;;;7.63;4.50;;;33.70;83.90;;;;;;5085157;28;20047;-70
2021/06/18 12:56:54;;;;;;;5.10;4.00;;;32.70;85.50;;;;;;5080712;28;20425;-71
2021/06/18 13:00:09;;;;;;;7.70;4.30;;;34.10;82.80;;;;;;5082718;28;20055;-69
2021/06/18 13:03:14;;;;;;;4.30;3.58;;;34.50;82.10;;;;;;5083287;28;20063;-70
2021/06/18 13:06:21;;;;;;;7.20;4.22;;;34.30;82.30;;;;;;5072292;28;20040;-68
2021/06/18 13:09:37;;;;;;;6.30;4.40;;;32.60;83.30;;;;;;5080632;28;20071;-69
2021/06/18 13:12:52;;;;;;;10.05;4.93;;;33.00;84.80;;;;;;5090986;28;20031;-70
2021/06/18 13:16:14;;;;;;;8.00;4.03;;;34.00;82.80;;;;;;5086873;28;20035;-69
2021/06/18 13:19:20;;;;;;;5.32;4.10;;;34.80;82.40;;;;;;5080057;28;20149;-71
2021/06/18 13:22:35;;;;;;;5.72;3.45;;;34.80;81.90;;;;;;5083135;28;20051;-70
2021/06/18 13:25:39;;;;;;;7.68;3.95;;;34.70;81.50;;;;;;5089517;28;20039;-69
2021/06/18 13:28:51;;;;;;;15.18;4.63;;;34.30;81.80;;;;;;5090844;28;20039;-70
2021/06/18 13:31:58;;;;;;;6.75;3.50;;;33.30;82.80;;;;;;5086349;28;20035;-70
2021/06/18 13:35:12;;;;;;;8.07;3.88;;;32.80;82.80;;;;;;5090708;28;20045;-69
2021/06/18 13:38:17;;;;;;;4.43;3.80;;;33.30;84.40;;;;;;5089253;28;20031;-69
2021/06/18 13:41:33;;;;;;;5.40;3.90;;;34.00;81.90;;;;;;5084888;28;20042;-69
2021/06/18 13:44:38;;;;;;;6.43;4.03;;;33.30;83.60;;;;;;5090633;28;20486;-69
2021/06/18 13:47:42;;;;;;;10.77;3.83;;;33.40;84.90;;;;;;5091620;28;20419;-69
2021/06/18 13:50:48;;;;;;;7.57;3.67;;;32.20;86.00;;;;;;5084375;28;20043;-69
2021/06/18 13:53:54;;;;;;;9.90;4.07;;;32.40;85.80;;;;;;5083624;28;20043;-70
2021/06/18 13:57:00;;;;;;;9.18;4.63;;;33.00;85.00;;;;;;5086855;28;20047;-68
2021/06/18 14:00:07;;;;;;;7.93;4.25;;;32.30;87.30;;;;;;5086293;28;20485;-69
2021/06/18 14:03:16;;;;;;;5.10;3.92;;;32.80;88.70;;;;;;5083366;28;20047;-68
2021/06/18 14:06:20;;;;;;;9.90;4.15;;;32.40;86.00;;;;;;5086294;28;20039;-69
2021/06/18 14:09:24;;;;;;;6.25;4.15;;;32.40;86.60;;;;;;5081570;28;20047;-68
2021/06/18 14:12:28;;;;;;;7.78;4.03;;;32.40;88.80;;;;;;5085231;28;20042;-69
2021/06/18 14:15:36;;;;;;;7.93;3.83;;;33.30;86.90;;;;;;5089353;28;20067;-71
2021/06/18 14:18:40;;;;;;;8.45;4.53;;;34.00;84.90;;;;;;5090056;28;20031;-70
2021/06/18 14:21:45;;;;;;;10.95;4.40;;;34.10;83.90;;;;;;5074591;28;20039;-69
2021/06/18 14:24:50;;;;;;;6.45;3.70;;;33.90;85.80;;;;;;5090030;28;20130;-69
2021/06/18 14:27:54;;;;;;;6.25;3.90;;;33.00;88.50;;;;;;5091136;28;20043;-69
2021/06/18 14:30:59;;;;;;;12.63;4.32;;;31.80;86.30;;;;;;5080264;28;20062;-69
2021/06/18 14:34:03;;;;;;;8.13;4.25;;;32.50;85.60;;;;;;5089167;28;20043;-69
2021/06/18 14:37:09;;;;;;;9.80;4.30;;;32.60;87.40;;;;;;5088996;28;20502;-69
2021/06/18 14:40:14;;;;;;;4.07;3.50;;;31.70;88.70;;;;;;5088783;28;20039;-69
2021/06/18 14:43:19;;;;;;;7.68;4.15;;;32.10;86.90;;;;;;5084352;28;20130;-69
2021/06/18 14:46:23;;;;;;;13.38;5.03;;;31.90;87.60;;;;;;5090658;28;20051;-70
2021/06/18 14:49:27;;;;;;;36.22;11.98;;;31.70;87.80;;;;;;5087128;28;20043;-69
2021/06/18 14:52:32;;;;;;;5.25;3.97;;;31.70;88.70;;;;;;5090645;28;20051;-70
2021/06/18 14:55:36;;;;;;;8.13;3.92;;;32.10;85.90;;;;;;5087007;28;20051;-69
2021/06/18 14:58:40;;;;;;;8.70;3.88;;;32.30;85.80;;;;;;5089554;28;20051;-70
2021/06/18 15:01:45;;;;;;;4.88;3.88;;;32.70;84.80;;;;;;5084421;28;20051;-70
2021/06/18 15:04:49;;;;;;;7.43;4.05;;;33.20;84.10;;;;;;5087818;28;20386;-71
2021/06/18 15:07:54;;;;;;;7.95;3.72;;;33.60;83.80;;;;;;5090664;28;20043;-68
2021/06/18 15:10:58;;;;;;;7.15;3.78;;;33.50;83.70;;;;;;5073811;28;20039;-69
2021/06/18 15:14:03;;;;;;;8.80;4.15;;;32.70;85.50;;;;;;5089288;28;20043;-68
2021/06/18 15:17:07;;;;;;;9.10;4.30;;;31.40;85.80;;;;;;5090020;28;20039;-69
2021/06/18 15:20:12;;;;;;;6.03;3.55;;;31.30;86.20;;;;;;5088418;28;20051;-69
2021/06/18 15:23:17;;;;;;;9.73;3.75;;;30.80;85.40;;;;;;5084072;28;20048;-68
2021/06/18 15:26:22;;;;;;;9.30;3.70;;;31.00;82.30;;;;;;5082462;28;20383;-68
2021/06/18 15:29:27;;;;;;;6.90;4.03;;;31.30;82.30;;;;;;5079568;28;20043;-68
2021/06/18 15:32:32;;;;;;;7.28;4.13;;;31.00;82.50;;;;;;5087335;28;20051;-69
2021/06/18 15:35:36;;;;;;;6.68;3.95;;;30.70;83.40;;;;;;5090316;28;20047;-70
2021/06/18 15:38:41;;;;;;;6.07;3.72;;;31.10;84.70;;;;;;5079716;28;20042;-69
2021/06/18 15:41:45;;;;;;;5.85;3.85;;;31.20;84.20;;;;;;5082657;28;20062;-70
2021/06/18 15:44:49;;;;;;;6.45;3.88;;;31.30;82.40;;;;;;5079941;28;20047;-70
2021/06/18 15:47:54;;;;;;;6.55;4.25;;;31.30;82.20;;;;;;5087589;28;20055;-69
2021/06/18 15:51:02;;;;;;;6.90;3.92;;;30.90;83.20;;;;;;5087024;28;20043;-69
2021/06/18 15:54:07;;;;;;;7.38;4.18;;;31.20;83.80;;;;;;5078185;28;20031;-70
2021/06/18 15:57:13;;;;;;;5.75;3.40;;;31.20;83.60;;;;;;5071707;28;20043;-70
2021/06/18 16:00:19;;;;;;;8.20;3.92;;;31.50;82.10;;;;;;5077800;28;20071;-70
2021/06/18 16:03:23;;;;;;;7.38;3.40;;;31.80;82.10;;;;;;5069427;28;20039;-70
2021/06/18 16:06:28;;;;;;;7.57;3.42;;;31.80;82.50;;;;;;5085158;28;20039;-70
2021/06/18 16:09:36;;;;;;;9.25;3.72;;;31.80;82.70;;;;;;5082814;28;20094;-70